메인 페이지
METAR-TAF:

METAR-TAF

공항 :

워싱톤, 버지니아, 미국

워싱턴 덜레스 국제공항

위도: 38-56-05N, 경도: 077-26-51W, 고도: 95m

현재 날씨관측

예보는 11분 전, 20:52시(UTC)에 발표되었습니다.
북서29kt, 순간 최대 풍속 39kt
온도 10°C
습도 43%
기압 1015 hPa
시정: 16.1km
고도 5000ft 상공 구름 보통

METAR: KIAD 192052Z 31029G39KT 10SM SCT050 10/M02 A2997 RMK AO2 PK WND 32039/2050 SLP148 T01001022 51040

시각: 17:03 (21:03 UTC)

예보

예보는 3 시간 2분 전, 18:01시(UTC)에 발표되었습니다.
예보 대상 시간: 19일 18시부터 20일 24시까지 (UTC)
서북서22kt, 순간 최대 풍속 35kt
시정: 10km
고도 4000ft 상공 구름 많음
19일 2300시부터 (UTC)
북서18kt, 순간 최대 풍속 33kt
시정: 10km
고도 5000ft 상공 구름 보통
20일 0300시부터 (UTC)
북서14kt, 순간 최대 풍속 27kt
시정: 10km
고도 25000ft 상공 구름 조금
20일 0600시부터 (UTC)
북서10kt, 순간 최대 풍속 20kt
시정: 10km
고도 25000ft 상공 구름 조금
20일 1400시부터 (UTC)
북서14kt, 순간 최대 풍속 27kt
시정: 10km
고도 25000ft 상공 구름 조금
20일 2200시부터 (UTC)
북북서13kt, 순간 최대 풍속 20kt
시정: 10km
고도 25000ft 상공 구름 조금

TAF: KIAD 191801Z 1918/2024 30022G35KT P6SM BKN040 FM192300 31018G33KT P6SM SCT050 FM200300 31014G27KT P6SM FEW250 FM200600 31010G20KT P6SM FEW250 FM201400 32014G27KT P6SM FEW250 FM202200 33013G20KT P6SM FEW250

4,000개 이상의 공항 관측 자료 및 예보 (METAR 및 TAF 보고).

지도상에서 검색 가능한 기상관측소가 노란 점과 빨간 점으로 표시되어 있습니다.

기상관측소 명을 보려면 표시 위로 마우스를 이동하세요.

날씨 관측과 예보를 보려면 클릭하세요.

지도 변경 : 확대하려면 엑스 표시가 있는 녹색 버튼, 축소하려면 빼기 표시가 있는 녹색 버튼, 다음 페이지의 지도를 보려면 녹색 화살표를 클릭하세요.


METAR-TAF: